North Tisbury, Massachusetts
Current Conditions -  °F | °C
As of 11:53 PM on Sunday 21 Dec 2014 (Local Time) from KMVY Reporting Station
Overcast Overcast  
Wind Chill: 34°   Ceiling: 5000
Heat Index: 38°   Visibility: 10mi
Dew Point: 35°   Wind: 5mph
Humidity: 89%   Direction: 350°N
Pressure: 30.31"   Gusts: NA
Location:  41.4442°N, 70.5999°W
Report Text: KMVY 220453Z AUTO 35004KT 10SM SCT024 OVC050 03/02 A3031 RMK AO2 SLP265 T00330017 400670028
Loading
Personal Weather Stations






























Interactive Weather Map New forecast layout! Learn more

10-Day Weather Forecast

Advertisements
Track Severe Weather on mobile